Brownell, Kansas
Current Conditions -  °F | °C
As of 1:35 PM on Tuesday 21 Oct 2014 (Local Time) from KHYS Reporting Station
Clear Clear  
Wind Chill: 73°   Ceiling: Unl
Heat Index: 73°   Visibility: 10mi
Dew Point: 59°   Wind: 15mph
Humidity: 61%   Direction: 140°SE
Pressure: 30.04"   Gusts: 18mph
Location:  38.64°N, 99.75°W
Report Text: KHYS 211835Z AUTO 14013G16KT 10SM CLR 23/15 A3004 RMK AO1
Loading
Personal Weather Stations






























Interactive Weather Map
Tropical Storm Tracking
New forecast layout! Learn more

10-Day Weather Forecast

Advertisements
Track Severe Weather on mobile